createdAt,value
2023-02-17T00:00:19.147Z,22.20
2023-02-17T00:02:45.772Z,20.90
2023-02-17T00:05:12.398Z,21.60
2023-02-17T00:07:39.170Z,22.87
2023-02-17T00:10:06.688Z,22.30
2023-02-17T00:12:33.665Z,22.40
2023-02-17T00:15:00.278Z,22.70
2023-02-17T00:17:26.913Z,22.37
2023-02-17T00:19:55.606Z,21.70
2023-02-17T00:22:22.284Z,22.50
2023-02-17T00:24:48.892Z,22.27
2023-02-17T00:27:15.611Z,22.50
2023-02-17T00:29:42.555Z,22.80
2023-02-17T00:32:12.117Z,20.90
2023-02-17T00:34:39.121Z,23.53
2023-02-17T00:37:06.965Z,24.03
2023-02-17T00:39:33.612Z,23.93
2023-02-17T00:42:00.276Z,24.40
2023-02-17T00:44:29.355Z,26.60
2023-02-17T00:46:56.084Z,24.07
2023-02-17T00:49:25.757Z,23.73
2023-02-17T00:51:53.163Z,23.73
2023-02-17T00:54:20.301Z,23.77
2023-02-17T00:56:47.076Z,26.30
2023-02-17T00:59:13.717Z,26.00
2023-02-17T01:01:40.425Z,24.10
2023-02-17T01:04:09.646Z,23.70
2023-02-17T01:06:38.938Z,24.03
2023-02-17T01:09:08.813Z,24.73
2023-02-17T01:11:36.454Z,24.00
2023-02-17T01:14:06.237Z,24.40
2023-02-17T01:16:38.738Z,24.30
2023-02-17T01:19:09.013Z,25.83
2023-02-17T01:21:36.388Z,25.47
2023-02-17T01:24:05.894Z,29.53
2023-02-17T01:26:34.325Z,28.63
2023-02-17T01:29:02.309Z,28.83
2023-02-17T01:31:29.214Z,28.43
2023-02-17T01:33:57.943Z,28.67
2023-02-17T01:36:24.964Z,27.23
2023-02-17T01:38:51.866Z,28.17
2023-02-17T01:41:20.583Z,27.93
2023-02-17T01:44:17.722Z,28.77
2023-02-17T01:46:46.828Z,29.47
2023-02-17T01:49:26.804Z,31.23
2023-02-17T01:52:15.477Z,29.93
2023-02-17T01:54:56.671Z,29.80
2023-02-17T01:57:26.543Z,30.30
2023-02-17T01:59:54.029Z,31.23
2023-02-17T02:02:21.731Z,30.90
2023-02-17T02:04:52.712Z,29.33
2023-02-17T02:07:27.263Z,30.63
2023-02-17T02:09:56.709Z,31.83
2023-02-17T02:12:34.876Z,29.27
2023-02-17T02:15:07.627Z,30.00
2023-02-17T02:18:03.892Z,30.50
2023-02-17T02:20:55.851Z,27.97
2023-02-17T02:23:52.491Z,29.37
2023-02-17T02:26:49.501Z,27.40
2023-02-17T02:29:43.390Z,26.00
2023-02-17T02:32:16.257Z,26.87
2023-02-17T02:34:56.843Z,26.67
2023-02-17T02:37:46.697Z,24.90
2023-02-17T02:40:15.428Z,26.13
2023-02-17T02:42:43.461Z,25.33
2023-02-17T02:45:12.068Z,23.77
2023-02-17T02:47:54.413Z,23.67
2023-02-17T02:50:47.779Z,23.43
2023-02-17T02:53:36.089Z,20.03
2023-02-17T02:56:27.435Z,19.30
2023-02-17T02:59:29.210Z,19.13
2023-02-17T03:02:14.683Z,12.87
2023-02-17T03:04:49.500Z,14.53
2023-02-17T03:07:31.715Z,14.97
2023-02-17T03:10:00.470Z,14.07
2023-02-17T03:12:28.317Z,14.23
2023-02-17T03:15:08.955Z,14.60
2023-02-17T03:17:35.736Z,16.77
2023-02-17T03:20:05.269Z,18.70
2023-02-17T03:22:40.626Z,16.43
2023-02-17T03:25:08.266Z,16.13
2023-02-17T03:27:35.082Z,14.90
2023-02-17T03:30:01.866Z,13.40
2023-02-17T03:32:31.358Z,13.63
2023-02-17T03:34:58.093Z,13.53
2023-02-17T03:37:24.710Z,12.73
2023-02-17T03:39:51.347Z,12.87
2023-02-17T03:42:17.972Z,13.17
2023-02-17T03:44:44.904Z,14.53
2023-02-17T03:47:11.563Z,13.30
2023-02-17T03:49:38.168Z,13.20
2023-02-17T03:52:04.991Z,13.57
2023-02-17T03:54:31.600Z,13.27
2023-02-17T03:56:59.349Z,13.37
2023-02-17T03:59:26.154Z,12.90
2023-02-17T04:01:52.795Z,13.10
2023-02-17T04:04:19.499Z,12.50
2023-02-17T04:06:46.098Z,12.07
2023-02-17T04:09:12.812Z,11.97
2023-02-17T04:11:39.420Z,12.43
2023-02-17T04:14:06.062Z,11.60
2023-02-17T04:16:32.763Z,12.10
2023-02-17T04:18:59.421Z,11.93
2023-02-17T04:21:26.230Z,11.73
2023-02-17T04:23:55.031Z,13.40
2023-02-17T04:26:21.666Z,13.63
2023-02-17T04:28:48.264Z,13.37
2023-02-17T04:31:14.949Z,13.33
2023-02-17T04:33:41.608Z,12.60
2023-02-17T04:36:08.672Z,12.97
2023-02-17T04:38:35.477Z,11.63
2023-02-17T04:41:02.175Z,10.87
2023-02-17T04:43:29.124Z,11.97
2023-02-17T04:45:56.166Z,11.13
2023-02-17T04:48:23.270Z,12.80
2023-02-17T04:50:50.174Z,12.60
2023-02-17T04:53:17.151Z,13.33
2023-02-17T04:55:43.950Z,14.03
2023-02-17T04:58:10.775Z,13.43
2023-02-17T05:00:37.514Z,13.63
2023-02-17T05:03:04.192Z,13.37
2023-02-17T05:05:31.023Z,15.03
2023-02-17T05:07:57.739Z,13.23
2023-02-17T05:10:24.614Z,13.87
2023-02-17T05:12:52.191Z,13.90
2023-02-17T05:15:18.824Z,14.77
2023-02-17T05:17:45.437Z,15.20
2023-02-17T05:20:12.358Z,16.50
2023-02-17T05:22:38.969Z,16.73
2023-02-17T05:25:06.185Z,17.30
2023-02-17T05:27:33.249Z,17.47
2023-02-17T05:30:00.143Z,17.93
2023-02-17T05:32:29.140Z,18.40
2023-02-17T05:34:55.721Z,20.13
2023-02-17T05:37:22.439Z,20.93
2023-02-17T05:39:49.061Z,22.23
2023-02-17T05:42:15.663Z,23.37
2023-02-17T05:44:42.345Z,23.17
2023-02-17T05:47:09.046Z,23.47
2023-02-17T05:49:35.702Z,24.27
2023-02-17T05:52:03.086Z,24.20
2023-02-17T05:54:29.712Z,23.10
2023-02-17T05:56:56.388Z,24.13
2023-02-17T05:59:23.167Z,23.83
2023-02-17T06:01:49.768Z,25.07
2023-02-17T06:04:16.418Z,24.63
2023-02-17T06:06:43.080Z,24.10
2023-02-17T06:09:09.694Z,23.10
2023-02-17T06:11:36.283Z,23.97
2023-02-17T06:14:03.045Z,24.70
2023-02-17T06:16:29.863Z,23.90
2023-02-17T06:18:56.519Z,25.43
2023-02-17T06:21:23.156Z,23.50
2023-02-17T06:23:49.757Z,24.13
2023-02-17T06:26:18.383Z,24.27
2023-02-17T06:28:45.421Z,24.50
2023-02-17T06:31:12.213Z,24.60
2023-02-17T06:33:38.970Z,25.07
2023-02-17T06:36:06.380Z,24.17
2023-02-17T06:38:33.287Z,25.27
2023-02-17T06:40:59.914Z,25.73
2023-02-17T06:43:26.557Z,24.87
2023-02-17T06:45:53.394Z,26.37
2023-02-17T06:48:20.063Z,25.73
2023-02-17T06:50:48.623Z,27.03
2023-02-17T06:53:15.286Z,26.93
2023-02-17T06:55:44.440Z,27.90
2023-02-17T06:58:11.040Z,29.73
2023-02-17T07:00:37.630Z,29.00
2023-02-17T07:03:04.343Z,29.90
2023-02-17T07:05:31.029Z,29.37
2023-02-17T07:07:58.545Z,29.80
2023-02-17T07:10:25.176Z,29.50
2023-02-17T07:12:52.053Z,30.20
2023-02-17T07:15:18.824Z,30.10
2023-02-17T07:17:45.571Z,29.30
2023-02-17T07:20:12.611Z,30.13
2023-02-17T07:22:39.639Z,32.17
2023-02-17T07:25:06.980Z,30.70
2023-02-17T07:27:36.591Z,31.47
2023-02-17T07:30:04.420Z,31.37
2023-02-17T07:32:31.077Z,31.00
2023-02-17T07:34:57.712Z,30.53
2023-02-17T07:37:24.349Z,29.90
2023-02-17T07:39:52.279Z,31.77
2023-02-17T07:42:18.865Z,31.63
2023-02-17T07:44:46.928Z,31.27
2023-02-17T07:47:13.811Z,30.80
2023-02-17T07:49:40.448Z,32.43
2023-02-17T07:52:07.030Z,30.60
2023-02-17T07:54:33.656Z,31.53
2023-02-17T07:57:00.325Z,32.33
2023-02-17T07:59:27.003Z,31.17
2023-02-17T08:01:53.646Z,32.17
2023-02-17T08:04:20.375Z,31.20
2023-02-17T08:06:47.003Z,31.73
2023-02-17T08:09:32.369Z,30.63
2023-02-17T08:12:17.555Z,27.63
2023-02-17T08:14:44.171Z,30.83
2023-02-17T08:17:10.824Z,28.90
2023-02-17T08:19:48.120Z,27.70
2023-02-17T08:22:17.311Z,24.73
2023-02-17T08:24:44.640Z,25.93
2023-02-17T08:27:11.575Z,24.83
2023-02-17T08:29:38.190Z,20.93
2023-02-17T08:32:04.973Z,22.83
2023-02-17T08:34:34.784Z,24.40
2023-02-17T08:37:03.639Z,23.83
2023-02-17T08:39:32.254Z,24.90
2023-02-17T08:41:58.893Z,23.43
2023-02-17T08:44:25.710Z,22.60
2023-02-17T08:46:52.889Z,21.10
2023-02-17T08:49:23.289Z,21.77
2023-02-17T08:51:50.856Z,20.60
2023-02-17T08:54:17.722Z,19.10
2023-02-17T08:56:44.720Z,20.47
2023-02-17T08:59:12.375Z,14.73
2023-02-17T09:01:40.603Z,22.20
2023-02-17T09:04:09.319Z,22.87
2023-02-17T09:06:42.659Z,20.40
2023-02-17T09:09:12.012Z,23.40
2023-02-17T09:11:38.904Z,24.73
2023-02-17T09:14:06.587Z,23.20
2023-02-17T09:16:33.454Z,24.60
2023-02-17T09:19:00.185Z,22.77
2023-02-17T09:21:26.992Z,22.80
2023-02-17T09:23:53.994Z,20.00
2023-02-17T09:26:21.032Z,20.87
2023-02-17T09:28:48.112Z,22.50
2023-02-17T09:31:20.949Z,20.87
2023-02-17T09:33:48.619Z,21.50
2023-02-17T09:36:18.128Z,19.50
2023-02-17T09:38:45.269Z,20.73
2023-02-17T09:41:33.715Z,20.43
2023-02-17T09:44:00.860Z,18.57
2023-02-17T09:46:35.549Z,16.50
2023-02-17T09:49:17.666Z,18.47
2023-02-17T09:51:55.409Z,18.20
2023-02-17T09:54:36.803Z,18.33
2023-02-17T09:57:08.303Z,17.97
2023-02-17T09:59:45.207Z,18.17
2023-02-17T10:02:24.751Z,17.13
2023-02-17T10:04:54.015Z,17.83
2023-02-17T10:07:29.199Z,18.60
2023-02-17T10:10:07.000Z,18.97
2023-02-17T10:12:43.535Z,13.73
2023-02-17T10:15:17.985Z,15.97
2023-02-17T10:17:53.421Z,20.37
2023-02-17T10:20:39.848Z,22.73
2023-02-17T10:23:27.856Z,20.60
2023-02-17T10:26:06.806Z,19.47
2023-02-17T10:28:52.788Z,21.13
2023-02-17T10:31:33.158Z,13.27
2023-02-17T10:34:13.522Z,100.23
2023-02-17T10:36:58.637Z,20.93
2023-02-17T10:39:51.392Z,18.97
2023-02-17T10:42:37.951Z,20.40
2023-02-17T10:45:21.567Z,22.40
2023-02-17T10:47:48.455Z,24.70
2023-02-17T10:50:20.545Z,25.70
2023-02-17T10:52:48.325Z,26.07
2023-02-17T10:55:25.729Z,21.73
2023-02-17T10:57:58.755Z,22.73
2023-02-17T11:00:26.659Z,24.47
2023-02-17T11:02:53.509Z,23.17
2023-02-17T11:05:25.020Z,25.00
2023-02-17T11:07:59.005Z,24.00
2023-02-17T11:10:39.760Z,23.47
2023-02-17T11:13:34.597Z,23.83
2023-02-17T11:16:01.544Z,21.50
2023-02-17T11:18:35.408Z,12.73
2023-02-17T11:21:08.677Z,21.70
2023-02-17T11:23:36.421Z,21.83
2023-02-17T11:26:09.038Z,20.43
2023-02-17T11:28:35.674Z,20.73
2023-02-17T11:31:04.695Z,16.67
2023-02-17T11:33:37.763Z,14.97
2023-02-17T11:36:07.188Z,19.53
2023-02-17T11:38:40.099Z,20.50
2023-02-17T11:41:08.087Z,20.40
2023-02-17T11:43:36.142Z,16.30
2023-02-17T11:46:21.831Z,15.67
2023-02-17T11:49:29.473Z,19.90
2023-02-17T11:52:15.739Z,21.77
2023-02-17T11:55:10.724Z,19.50
2023-02-17T11:57:45.589Z,20.77
2023-02-17T12:00:22.874Z,20.20
2023-02-17T12:03:16.755Z,20.50
2023-02-17T12:06:13.318Z,21.07
2023-02-17T12:08:47.695Z,21.53
2023-02-17T12:11:20.221Z,16.63
2023-02-17T12:14:04.452Z,19.67
2023-02-17T12:16:38.223Z,10.87
2023-02-17T12:19:37.161Z,17.50
2023-02-17T12:22:23.117Z,20.03
2023-02-17T12:25:11.879Z,19.17
2023-02-17T12:28:06.583Z,16.77
2023-02-17T12:31:11.010Z,17.33
2023-02-17T12:34:15.327Z,14.57
2023-02-17T12:36:43.212Z,14.00
2023-02-17T12:39:21.820Z,18.57
2023-02-17T12:42:06.609Z,12.07
2023-02-17T12:44:43.296Z,17.33
2023-02-17T12:47:15.692Z,15.83
2023-02-17T12:49:58.266Z,16.10
2023-02-17T12:52:48.569Z,8.00
2023-02-17T12:55:22.786Z,9.27
2023-02-17T12:58:00.950Z,14.50
2023-02-17T13:00:36.351Z,15.93
2023-02-17T13:03:04.704Z,11.13
2023-02-17T13:05:59.500Z,10.33
2023-02-17T13:08:56.667Z,6.90
2023-02-17T13:11:33.423Z,9.90
2023-02-17T13:14:23.755Z,5.80
2023-02-17T13:16:50.521Z,4.87
2023-02-17T13:19:28.908Z,3.93
2023-02-17T13:21:57.172Z,3.77
2023-02-17T13:24:38.433Z,4.03
2023-02-17T13:27:20.565Z,3.73
2023-02-17T13:30:00.525Z,4.57
2023-02-17T13:32:30.138Z,5.10
2023-02-17T13:35:17.981Z,4.10
2023-02-17T13:37:46.267Z,5.17
2023-02-17T13:40:15.908Z,3.33
2023-02-17T13:42:45.829Z,3.27
2023-02-17T13:45:20.053Z,4.87
2023-02-17T13:47:49.152Z,9.60
2023-02-17T13:50:38.256Z,7.43
2023-02-17T13:53:25.406Z,4.53
2023-02-17T13:55:54.322Z,7.17
2023-02-17T13:58:28.220Z,4.50
2023-02-17T14:00:56.282Z,4.23
2023-02-17T14:03:25.980Z,4.00
2023-02-17T14:06:09.857Z,6.27
2023-02-17T14:09:26.714Z,5.13
2023-02-17T14:11:55.322Z,4.50
2023-02-17T14:14:34.102Z,2.83
2023-02-17T14:17:32.738Z,4.63
2023-02-17T14:20:00.782Z,6.70
2023-02-17T14:22:30.167Z,6.80
2023-02-17T14:25:02.930Z,5.87
2023-02-17T14:27:40.263Z,6.50
2023-02-17T14:30:07.657Z,4.97
2023-02-17T14:32:38.150Z,10.07
2023-02-17T14:35:13.795Z,3.93
2023-02-17T14:37:41.866Z,3.57
2023-02-17T14:40:23.351Z,6.30
2023-02-17T14:42:50.939Z,6.90
2023-02-17T14:45:18.800Z,5.67
2023-02-17T14:47:46.038Z,7.10
2023-02-17T14:50:13.744Z,7.63
2023-02-17T14:52:48.923Z,5.63
2023-02-17T14:55:35.704Z,5.90
2023-02-17T14:58:03.424Z,9.93
2023-02-17T15:00:30.210Z,9.93
2023-02-17T15:02:57.192Z,8.87
2023-02-17T15:05:24.007Z,10.40
2023-02-17T15:07:50.836Z,10.80
2023-02-17T15:10:26.236Z,15.97
2023-02-17T15:12:53.379Z,15.73
2023-02-17T15:15:20.699Z,10.67
2023-02-17T15:17:47.775Z,10.00
2023-02-17T15:20:16.060Z,10.50
2023-02-17T15:22:44.192Z,10.40
2023-02-17T15:25:24.527Z,6.97
2023-02-17T15:27:51.515Z,8.83
2023-02-17T15:30:22.743Z,15.10
2023-02-17T15:32:49.623Z,9.10
2023-02-17T15:35:27.162Z,14.17
2023-02-17T15:37:54.540Z,11.13
2023-02-17T15:40:26.612Z,9.67
2023-02-17T15:42:57.006Z,12.70
2023-02-17T15:45:24.643Z,14.93
2023-02-17T15:47:57.630Z,11.40
2023-02-17T15:50:31.843Z,11.73
2023-02-17T15:53:00.694Z,11.07
2023-02-17T15:55:29.100Z,10.70
2023-02-17T15:58:03.426Z,15.80
2023-02-17T16:00:35.273Z,12.70
2023-02-17T16:03:02.308Z,9.10
2023-02-17T16:05:30.195Z,12.17
2023-02-17T16:07:56.975Z,9.40
2023-02-17T16:10:29.002Z,9.63
2023-02-17T16:12:58.142Z,11.67
2023-02-17T16:15:26.042Z,7.47
2023-02-17T16:17:53.600Z,10.60
2023-02-17T16:20:23.471Z,11.23
2023-02-17T16:22:50.246Z,11.83
2023-02-17T16:25:18.547Z,10.00
2023-02-17T16:27:47.434Z,12.17
2023-02-17T16:30:33.189Z,15.20
2023-02-17T16:33:00.052Z,10.43
2023-02-17T16:35:29.409Z,11.07
2023-02-17T16:38:15.027Z,12.33
2023-02-17T16:40:47.261Z,11.00
2023-02-17T16:43:16.338Z,10.53
2023-02-17T16:45:53.073Z,9.40
2023-02-17T16:48:22.449Z,10.47
2023-02-17T16:50:49.136Z,12.87
2023-02-17T16:53:16.485Z,11.90
2023-02-17T16:55:43.586Z,11.87
2023-02-17T16:58:19.485Z,11.57
2023-02-17T17:00:48.090Z,7.37
2023-02-17T17:03:15.092Z,8.57
2023-02-17T17:05:42.852Z,12.60
2023-02-17T17:08:12.630Z,13.63
2023-02-17T17:10:40.463Z,13.43
2023-02-17T17:13:07.253Z,10.27
2023-02-17T17:15:39.901Z,10.23
2023-02-17T17:18:09.075Z,13.60
2023-02-17T17:20:40.796Z,17.43
2023-02-17T17:23:11.966Z,11.60
2023-02-17T17:25:40.599Z,9.57
2023-02-17T17:28:07.495Z,12.80
2023-02-17T17:30:35.793Z,14.47
2023-02-17T17:33:02.538Z,12.40
2023-02-17T17:35:29.610Z,15.97
2023-02-17T17:37:59.073Z,15.83
2023-02-17T17:40:34.432Z,14.20
2023-02-17T17:43:01.045Z,15.27
2023-02-17T17:45:27.702Z,12.03
2023-02-17T17:47:55.473Z,14.37
2023-02-17T17:50:23.760Z,10.50
2023-02-17T17:52:50.738Z,11.40
2023-02-17T17:55:17.576Z,13.40
2023-02-17T17:57:45.009Z,18.37
2023-02-17T18:00:15.794Z,18.43
2023-02-17T18:02:43.027Z,14.67
2023-02-17T18:05:10.033Z,22.33
2023-02-17T18:07:39.621Z,20.17
2023-02-17T18:10:09.416Z,8.73
